Flight Track Log - Related Links

Times and Time Zones

All times are in EDT time to prevent confusion due to time zone crossing. See the CSH9157 flight status page for this flight to view local times or setup timezone preferences in your user account.

Time Position Orientation Groundspeed Altitude Reporting Facility
EDT Latitude Longitude Course Direction KTS MPH feet Rate Location/Type
11:14PM 31.0033 120.1617 343° North  Level Estimated
11:15PM 31.0893 120.1314 343° North  Level Estimated
11:16PM 31.1754 120.1011 343° North  Level Estimated
11:17PM 31.2614 120.0707 343° North  Level Estimated
11:18PM 31.3557 120.0374 343° North  Level Estimated
11:19PM 31.4499 120.0040 343° North  Level Estimated
11:20PM 31.5441 119.9705 343° North  Level Estimated
11:21PM 31.6383 119.9370 343° North  Level Estimated
11:22PM 31.7325 119.9034 343° North  Level Estimated
11:23PM 31.8267 119.8697 343° North  Level Estimated
11:24PM 31.9209 119.8360 343° North  Level Estimated
11:25PM 32.0151 119.8022 343° North  Level Estimated
11:26PM 32.1093 119.7683 343° North  Level Estimated
11:27PM 32.2034 119.7343 343° North  Level Estimated
11:28PM 32.2976 119.7003 343° North  Level Estimated
11:29PM 32.3917 119.6662 343° North  Level Estimated
11:30PM 32.4859 119.6321 343° North  Level Estimated
11:31PM 32.5800 119.5978 343° North  Level Estimated
11:32PM 32.6741 119.5635 343° North  Level Estimated
11:33PM 32.7682 119.5291 343° North  Level Estimated
11:34PM 32.8623 119.4947 343° North  Level Estimated
11:35PM 32.9564 119.4602 343° North  Level Estimated
11:36PM 33.0505 119.4256 343° North  Level Estimated
11:37PM 33.1446 119.3909 343° North  Level Estimated
11:38PM 33.2386 119.3562 343° North  Level Estimated
11:39PM 33.3326 119.3213 343° North  Level Estimated
11:40PM 33.4267 119.2864 343° North  Level Estimated
11:41PM 33.5207 119.2515 343° North  Level Estimated
11:42PM 33.6147 119.2164 343° North  Level Estimated
11:43PM 33.7088 119.1813 343° North  Level Estimated
11:44PM 33.8027 119.1461 343° North  Level Estimated
11:45PM 33.8967 119.1108 343° North  Level Estimated
11:46PM 33.9907 119.0755 343° North  Level Estimated
11:47PM 34.0847 119.0400 343° North  Level Estimated
11:48PM 34.1786 119.0045 343° North  Level Estimated
11:49PM 34.2726 118.9689 343° North  Level Estimated
11:50PM 34.3665 118.9333 343° North  Level Estimated
11:51PM 34.4605 118.8975 343° North  Level Estimated
11:52PM 34.5544 118.8617 343° North  Level Estimated
11:53PM 34.6483 118.8258 343° North  Level Estimated
11:54PM 34.7422 118.7898 343° North  Level Estimated
11:55PM 34.8361 118.7537 342° North  Level Estimated
11:56PM 34.9299 118.7175 342° North  Level Estimated
11:57PM 35.0238 118.6813 342° North  Level Estimated
11:58PM 35.1177 118.6450 342° North  Level Estimated
11:59PM 35.2115 118.6086 342° North  Level Estimated
12:00AM 35.3053 118.5721 342° North  Level Estimated
12:01AM 35.3992 118.5355 342° North  Level Estimated
12:02AM 35.4930 118.4988 342° North  Level Estimated
12:03AM 35.5868 118.4621 342° North  Level Estimated
12:04AM 35.6805 118.4252 342° North  Level Estimated
12:05AM 35.7743 118.3883 342° North  Level Estimated
12:06AM 35.8681 118.3513 342° North  Level Estimated
12:07AM 35.9618 118.3142 342° North  Level Estimated
12:08AM 36.0556 118.2770 342° North  Level Estimated
12:09AM 36.1493 118.2397 342° North  Level Estimated
12:10AM 36.2430 118.2024 342° North  Level Estimated
12:11AM 36.3368 118.1649 342° North  Level Estimated
12:12AM 36.4304 118.1274 342° North  Level Estimated
12:13AM 36.5241 118.0898 342° North  Level Estimated
12:14AM 36.6178 118.0520 342° North  Level Estimated
12:15AM 36.7115 118.0142 342° North  Level Estimated
12:16AM 36.8051 117.9763 342° North  Level Estimated
12:17AM 36.8987 117.9383 342° North  Level Estimated
12:18AM 36.9924 117.9002 342° North  Level Estimated
12:19AM 37.0860 117.8620 342° North  Level Estimated
12:20AM 37.1796 117.8237 342° North  Level Estimated
12:21AM 37.2732 117.7853 342° North  Level Estimated
12:22AM 37.3667 117.7469 342° North  Level Estimated
12:23AM 37.4603 117.7083 342° North  Level Estimated
12:24AM 37.5538 117.6696 342° North  Level Estimated
12:25AM 37.6474 117.6309 342° North  Level Estimated
12:26AM 37.7409 117.5920 342° North  Level Estimated
12:27AM 37.8344 117.5531 342° North  Level Estimated
12:28AM 37.9279 117.5140 342° North  Level Estimated
12:29AM 38.0214 117.4748 342° North  Level Estimated
12:30AM 38.1149 117.4356 342° North  Level Estimated
12:31AM 38.2083 117.3962 342° North  Level Estimated
12:32AM 38.3018 117.3568 342° North  Level Estimated
12:33AM 38.3952 117.3172 342° North  Level Estimated
12:34AM 38.4886 117.2775 342° North  Level Estimated
12:35AM 38.5820 117.2378 342° North  Level Estimated
12:36AM 38.6754 117.1979 342° North  Level Estimated
12:37AM 38.7688 117.1579 342° North  Level Estimated
12:38AM 38.8622 117.1178 342° North  Level Estimated
12:39AM 38.9555 117.0777 341° North  Level Estimated
12:40AM 39.0489 117.0374 341° North  Level Estimated
12:41AM 39.1422 116.9970 341° North  Level Estimated
12:42AM 39.2274 116.9600 341° North  Level Estimated
12:43AM 39.3126 116.9229 341° North  Level Estimated
12:44AM 39.3978 116.8858 341° North  Level Estimated
12:45AM 39.4829 116.8485 341° North  Level Estimated
12:46AM 39.5681 116.8112 341° North  Level Estimated
12:47AM 39.6532 116.7737 341° North  Level Estimated
12:48AM 39.7383 116.7362 341° North  Level Estimated
12:49AM 39.8234 116.6986 341° North  Level Estimated
12:50AM 39.9085 116.6609 341° North  Level Estimated
12:51AM 39.9936 116.6231 341° North  Level Estimated
12:52AM 40.0787 116.5852 341° North  Level Estimated
12:53AM 40.0801 116.5846 341° North  Level Estimated
12:54AM 40.0801 116.5846 North  Level Estimated
12:55AM 40.0801 116.5846 North  Level Estimated
12:56AM 40.0801 116.5846 North  Level Estimated
12:57AM 40.0801 116.5846 North  Level Estimated
12:58AM 40.0801 116.5846 North  Level Estimated
12:59AM 40.0801 116.5846 North  Level Estimated
01:00AM 40.0801 116.5846 North  Level Estimated
01:01AM 40.0801 116.5846 North  Level Estimated

Login

Don't have an account? Register now (free) for customized features, flight alerts, and more!